Time;durP1;ratioP1;P1;durP2;ratioP2;P2;SDS_P1;SDS_P2;PMS_P1;PMS_P2;Temp;Humidity;BMP_temperature;BMP_pressure;BME280_temperature;BME280_humidity;BME280_pressure;Samples;Min_cycle;Max_cycle;Signal;HPM_P1;HPM_P2
2022/06/12 00:01:52;;;;;;;8.40;7.63;;;20.10;96.10;;;;;;5013046;28;20955;-89
2022/06/12 00:04:18;;;;;;;10.60;8.10;;;20.00;96.40;;;;;;5012904;28;20453;-90
2022/06/12 00:06:48;;;;;;;8.70;7.80;;;20.00;96.70;;;;;;5012791;28;20450;-89
2022/06/12 00:09:15;;;;;;;8.10;7.30;;;20.00;97.20;;;;;;5012438;28;20477;-89
2022/06/12 00:11:44;;;;;;;8.80;7.93;;;20.00;97.50;;;;;;5012825;28;20560;-89
2022/06/12 00:14:14;;;;;;;8.73;7.83;;;19.90;97.60;;;;;;5016336;28;20510;-89
2022/06/12 00:16:43;;;;;;;9.17;8.03;;;19.80;98.10;;;;;;5025640;28;20467;-89
2022/06/12 00:19:11;;;;;;;9.00;8.10;;;19.70;98.60;;;;;;5022306;28;20445;-89
2022/06/12 00:21:38;;;;;;;10.30;7.87;;;19.70;99.10;;;;;;5015233;28;20866;-89
2022/06/12 00:24:09;;;;;;;10.13;7.97;;;19.70;99.30;;;;;;5012965;28;20450;-89
2022/06/12 00:26:38;;;;;;;14.07;8.13;;;19.70;99.50;;;;;;5012623;28;20465;-89
2022/06/12 00:29:09;;;;;;;9.43;8.47;;;19.60;99.40;;;;;;5020520;28;20448;-88
2022/06/12 00:31:38;;;;;;;9.03;8.13;;;19.50;99.90;;;;;;5038246;28;20427;-88
2022/06/12 00:34:06;;;;;;;8.33;7.50;;;19.40;99.90;;;;;;5030624;28;20449;-89
2022/06/12 00:36:33;;;;;;;9.93;8.00;;;19.40;99.90;;;;;;5034031;28;20432;-89
2022/06/12 00:39:00;;;;;;;7.73;7.00;;;19.40;99.90;;;;;;5030616;28;20447;-89
2022/06/12 00:41:28;;;;;;;9.00;7.17;;;19.40;99.90;;;;;;5023194;28;20451;-89
2022/06/12 00:43:56;;;;;;;10.13;9.13;;;19.40;99.90;;;;;;5035489;28;20429;-88
2022/06/12 00:46:42;;;;;;;10.37;8.10;;;19.40;99.90;;;;;;5039437;28;20433;-89
2022/06/12 00:49:12;;;;;;;8.80;7.97;;;19.40;99.90;;;;;;5040926;28;20488;-88
2022/06/12 00:51:39;;;;;;;9.07;8.17;;;19.30;99.90;;;;;;5041039;28;20435;-88
2022/06/12 00:54:09;;;;;;;8.77;7.87;;;19.30;99.90;;;;;;5020430;28;20839;-88
2022/06/12 00:56:42;;;;;;;9.13;8.30;;;19.30;99.90;;;;;;5032497;28;20450;-89
2022/06/12 00:59:13;;;;;;;9.30;8.43;;;19.30;99.90;;;;;;5027592;28;20448;-89
2022/06/12 01:01:44;;;;;;;10.87;9.77;;;19.20;99.90;;;;;;5017233;28;20451;-89
2022/06/12 01:07:00;;;;;;;9.60;7.57;;;19.10;99.90;;;;;;5017224;28;20426;-89
2022/06/12 01:09:32;;;;;;;8.77;7.87;;;19.10;99.90;;;;;;5016581;28;20495;-89
2022/06/12 01:12:03;;;;;;;9.23;8.33;;;19.10;99.90;;;;;;5017884;28;20459;-88
2022/06/12 01:14:35;;;;;;;9.13;8.00;;;19.10;99.90;;;;;;5018086;28;20452;-89
2022/06/12 01:17:03;;;;;;;8.90;8.10;;;19.10;99.90;;;;;;5032533;28;20480;-89
2022/06/12 01:19:35;;;;;;;8.90;7.83;;;19.10;99.90;;;;;;5038719;28;20445;-89
2022/06/12 01:22:35;;;;;;;9.93;7.17;;;19.00;99.90;;;;;;5037004;28;20431;-89
2022/06/12 01:25:36;;;;;;;7.70;6.90;;;18.90;99.90;;;;;;5028021;28;20462;-89
2022/06/12 01:28:35;;;;;;;8.90;8.20;;;18.80;99.90;;;;;;4993398;28;20493;-89
2022/06/12 01:31:11;;;;;;;12.60;8.20;;;18.80;99.90;;;;;;5018845;28;20469;-89
2022/06/12 01:33:46;;;;;;;11.83;10.70;;;18.80;99.90;;;;;;5022840;28;20514;-89
2022/06/12 01:36:18;;;;;;;8.83;7.90;;;18.80;99.90;;;;;;5039646;28;20427;-89
2022/06/12 01:38:52;;;;;;;8.43;7.67;;;18.80;99.90;;;;;;5025009;28;20438;-88
2022/06/12 01:41:28;;;;;;;9.67;8.77;;;18.80;99.90;;;;;;5021041;28;20502;-88
2022/06/12 01:44:03;;;;;;;9.07;8.20;;;18.80;99.90;;;;;;5021142;28;20532;-89
2022/06/12 01:46:41;;;;;;;9.83;8.63;;;18.70;99.90;;;;;;5025959;28;20454;-89
2022/06/12 01:49:16;;;;;;;9.17;8.27;;;18.70;99.90;;;;;;5016657;28;20479;-89
2022/06/12 01:51:50;;;;;;;8.37;7.60;;;18.70;99.90;;;;;;5016906;28;20491;-88
2022/06/12 01:54:23;;;;;;;9.90;8.93;;;18.60;99.90;;;;;;5016795;28;20942;-88
2022/06/12 01:56:56;;;;;;;10.60;8.20;;;18.60;99.90;;;;;;5016479;28;20451;-89
2022/06/12 01:59:31;;;;;;;10.67;8.60;;;18.60;99.90;;;;;;5015829;28;21211;-89
2022/06/12 02:02:04;;;;;;;11.10;8.50;;;18.60;99.90;;;;;;5025384;28;20462;-88
2022/06/12 02:04:38;;;;;;;9.63;8.30;;;18.50;99.90;;;;;;5038961;28;20447;-88
2022/06/12 02:07:09;;;;;;;9.03;8.33;;;18.50;99.90;;;;;;5025728;28;20475;-89
2022/06/12 02:09:40;;;;;;;9.70;8.70;;;18.40;99.90;;;;;;5023785;28;20481;-88
2022/06/12 02:15:03;;;;;;;9.07;7.90;;;18.40;99.90;;;;;;5036911;28;20430;-89
2022/06/12 02:17:35;;;;;;;10.50;8.90;;;18.30;99.90;;;;;;5018847;28;20464;-89
2022/06/12 02:20:05;;;;;;;9.40;8.57;;;18.30;99.90;;;;;;5018521;28;20466;-89
2022/06/12 02:22:33;;;;;;;9.70;8.90;;;18.20;99.90;;;;;;5016636;28;20462;-88
2022/06/12 02:25:05;;;;;;;11.30;9.10;;;18.20;99.90;;;;;;5014436;28;20941;-89
2022/06/12 02:27:36;;;;;;;9.60;8.80;;;18.20;99.90;;;;;;5014732;28;20458;-89
2022/06/12 02:30:10;;;;;;;10.10;9.10;;;18.10;99.90;;;;;;5016034;28;20471;-89
2022/06/12 02:32:43;;;;;;;10.13;9.13;;;18.10;99.90;;;;;;5015099;28;20462;-89
2022/06/12 02:35:15;;;;;;;9.53;8.73;;;18.10;99.90;;;;;;5015006;28;20452;-88
2022/06/12 02:37:46;;;;;;;14.10;9.30;;;18.00;99.90;;;;;;5014419;28;20459;-89
2022/06/12 02:40:25;;;;;;;10.70;8.77;;;17.90;99.90;;;;;;5014249;28;20838;-89
2022/06/12 02:42:55;;;;;;;9.57;8.67;;;17.90;99.90;;;;;;5014839;28;20460;-89
2022/06/12 02:45:28;;;;;;;10.53;9.63;;;17.80;99.90;;;;;;5014663;28;20434;-89
2022/06/12 02:47:56;;;;;;;9.40;8.57;;;17.80;99.90;;;;;;5014743;28;20484;-89
2022/06/12 02:50:26;;;;;;;9.87;8.87;;;17.80;99.90;;;;;;5014206;28;20474;-89
2022/06/12 02:53:02;;;;;;;12.97;10.23;;;17.80;99.90;;;;;;5014663;28;20458;-89
2022/06/12 02:55:33;;;;;;;10.30;9.20;;;17.80;99.90;;;;;;5024366;28;20463;-89
2022/06/12 02:58:10;;;;;;;9.17;8.40;;;17.80;99.90;;;;;;5036585;28;20429;-88
2022/06/12 03:00:43;;;;;;;9.43;8.20;;;17.80;99.90;;;;;;5038817;28;20484;-89
2022/06/12 03:03:21;;;;;;;8.97;8.20;;;17.80;99.90;;;;;;5021318;28;20454;-89
2022/06/12 03:05:51;;;;;;;9.07;7.83;;;17.70;99.90;;;;;;5039493;28;20437;-89
2022/06/12 03:08:24;;;;;;;9.43;8.47;;;17.70;99.90;;;;;;5037456;28;20487;-89
2022/06/12 03:10:54;;;;;;;9.07;8.23;;;17.80;99.90;;;;;;5020965;28;20473;-89
2022/06/12 03:13:25;;;;;;;10.23;9.23;;;17.60;99.90;;;;;;5038011;28;20482;-88
2022/06/12 03:15:54;;;;;;;9.67;8.80;;;17.60;99.90;;;;;;5024996;28;20544;-89
2022/06/12 03:18:26;;;;;;;11.07;10.07;;;17.60;99.90;;;;;;5024275;28;20454;-88
2022/06/12 03:21:06;;;;;;;11.10;9.07;;;17.50;99.90;;;;;;5038323;28;20458;-88
2022/06/12 03:23:43;;;;;;;9.60;8.80;;;17.50;99.90;;;;;;5027774;28;20441;-88
2022/06/12 03:26:20;;;;;;;9.37;8.47;;;17.50;99.90;;;;;;5014613;28;20446;-88
2022/06/12 03:28:52;;;;;;;9.30;8.50;;;17.50;99.90;;;;;;5013391;28;20500;-88
2022/06/12 03:31:24;;;;;;;9.63;8.63;;;17.50;99.90;;;;;;5014984;28;20521;-88
2022/06/12 03:34:08;;;;;;;9.70;8.80;;;17.50;99.90;;;;;;5020113;28;20449;-88
2022/06/12 03:36:40;;;;;;;8.73;8.03;;;17.40;99.90;;;;;;5037498;28;20446;-89
2022/06/12 03:39:17;;;;;;;10.13;8.20;;;17.40;99.90;;;;;;5024634;28;20434;-89
2022/06/12 03:41:53;;;;;;;10.07;9.07;;;17.40;99.90;;;;;;5014085;28;20458;-89
2022/06/12 03:44:30;;;;;;;10.00;9.00;;;17.30;99.90;;;;;;5013209;28;20476;-89
2022/06/12 03:47:03;;;;;;;9.43;8.63;;;17.30;99.90;;;;;;5013557;28;20977;-89
2022/06/12 03:49:35;;;;;;;10.47;9.10;;;17.30;99.90;;;;;;5013218;28;20485;-89
2022/06/12 03:52:12;;;;;;;9.37;8.47;;;17.30;99.90;;;;;;5013419;28;20894;-89
2022/06/12 03:54:47;;;;;;;10.60;9.70;;;17.30;99.90;;;;;;5024755;28;20471;-89
2022/06/12 04:00:08;;;;;;;9.53;8.70;;;17.20;99.90;;;;;;5017959;28;20541;-89
2022/06/12 04:02:37;;;;;;;9.97;8.93;;;17.20;99.90;;;;;;5015272;28;20509;-89
2022/06/12 04:05:07;;;;;;;9.37;8.57;;;17.20;99.90;;;;;;5012901;28;20461;-89
2022/06/12 04:07:46;;;;;;;8.57;7.83;;;17.20;99.90;;;;;;5013272;28;20461;-89
2022/06/12 04:10:18;;;;;;;9.70;8.83;;;17.20;99.90;;;;;;5014580;28;20490;-89
2022/06/12 04:12:45;;;;;;;9.17;8.33;;;17.20;99.90;;;;;;5015687;28;20803;-89
2022/06/12 04:15:18;;;;;;;9.67;8.10;;;17.30;99.90;;;;;;5015150;28;20972;-90
2022/06/12 04:17:46;;;;;;;9.73;8.83;;;17.30;99.90;;;;;;5013227;28;20453;-89
2022/06/12 04:20:17;;;;;;;9.63;8.20;;;17.30;99.90;;;;;;5013307;28;20466;-90
2022/06/12 04:22:52;;;;;;;9.03;8.20;;;17.30;99.90;;;;;;5016645;28;20449;-90
2022/06/12 04:25:32;;;;;;;9.30;8.43;;;17.30;99.90;;;;;;5016418;28;20441;-89
2022/06/12 04:27:59;;;;;;;9.50;8.60;;;17.30;99.90;;;;;;5016207;28;20441;-89
2022/06/12 04:30:29;;;;;;;9.50;8.80;;;17.30;99.90;;;;;;5016112;28;20496;-89
2022/06/12 04:33:16;;;;;;;10.40;9.37;;;17.30;99.90;;;;;;5029549;28;20434;-89
2022/06/12 04:35:51;;;;;;;10.30;9.30;;;17.40;99.90;;;;;;5041241;28;20438;-88
2022/06/12 04:38:19;;;;;;;9.30;8.40;;;17.40;99.90;;;;;;5036632;28;20456;-89
2022/06/12 04:40:46;;;;;;;10.67;9.63;;;17.40;99.90;;;;;;5024926;28;20461;-89
2022/06/12 04:43:13;;;;;;;10.57;9.50;;;17.40;99.90;;;;;;5016568;28;20450;-89
2022/06/12 04:45:41;;;;;;;10.50;9.40;;;17.40;99.90;;;;;;5016511;28;20527;-89
2022/06/12 04:48:11;;;;;;;11.60;9.10;;;17.50;99.90;;;;;;5016143;28;20454;-89
2022/06/12 04:50:38;;;;;;;9.50;8.60;;;17.50;99.90;;;;;;5016323;28;21036;-90
2022/06/12 04:53:06;;;;;;;10.60;9.50;;;17.60;99.90;;;;;;5016533;28;20437;-89
2022/06/12 04:55:33;;;;;;;9.57;8.77;;;17.70;99.90;;;;;;5016519;28;21164;-89
2022/06/12 04:58:00;;;;;;;9.03;8.33;;;17.70;99.90;;;;;;5016096;28;20450;-89
2022/06/12 05:00:27;;;;;;;10.13;9.20;;;17.70;99.90;;;;;;5016327;28;20461;-89
2022/06/12 05:02:53;;;;;;;10.03;9.20;;;17.70;99.90;;;;;;5016181;28;20430;-89
2022/06/12 05:05:20;;;;;;;9.13;8.33;;;17.70;99.90;;;;;;5015880;28;20435;-89
2022/06/12 05:07:47;;;;;;;9.73;8.93;;;17.80;99.90;;;;;;5017445;28;20449;-90
2022/06/12 05:10:16;;;;;;;10.47;9.57;;;17.80;99.90;;;;;;5024187;28;20482;-89
2022/06/12 05:12:43;;;;;;;11.37;9.13;;;17.90;99.90;;;;;;5039220;28;20440;-89
2022/06/12 05:15:12;;;;;;;8.67;7.90;;;17.90;99.90;;;;;;5031826;28;20456;-90
2022/06/12 05:17:39;;;;;;;10.10;9.03;;;18.00;99.90;;;;;;5015769;28;20874;-89
2022/06/12 05:20:08;;;;;;;9.43;8.47;;;18.20;99.90;;;;;;5015284;28;20467;-89
2022/06/12 05:22:34;;;;;;;8.90;8.20;;;18.60;99.90;;;;;;5015516;28;20456;-90
2022/06/12 05:25:01;;;;;;;8.57;7.40;;;19.20;99.90;;;;;;5016503;28;20443;-89
2022/06/12 05:27:32;;;;;;;8.27;7.63;;;19.80;99.90;;;;;;5018952;28;20459;-89
2022/06/12 05:29:58;;;;;;;8.20;7.60;;;20.30;99.90;;;;;;5023847;28;20470;-89
2022/06/12 05:32:26;;;;;;;8.70;7.90;;;20.90;99.90;;;;;;5039344;28;20446;-89
2022/06/12 05:34:54;;;;;;;8.10;7.30;;;21.50;99.90;;;;;;5039281;28;20432;-89
2022/06/12 05:37:21;;;;;;;7.40;6.70;;;21.80;98.60;;;;;;5037154;28;20431;-90
2022/06/12 05:39:48;;;;;;;8.20;7.33;;;22.10;97.70;;;;;;5040770;28;20480;-89
2022/06/12 05:42:15;;;;;;;8.03;7.27;;;22.40;96.90;;;;;;5040663;28;20453;-89
2022/06/12 05:44:44;;;;;;;9.47;7.27;;;22.90;95.80;;;;;;5037863;28;20434;-90
2022/06/12 05:47:11;;;;;;;11.03;8.20;;;23.50;94.80;;;;;;5040491;28;20430;-90
2022/06/12 05:49:38;;;;;;;7.43;6.73;;;23.70;93.30;;;;;;5039276;28;20486;-89
2022/06/12 05:52:06;;;;;;;8.00;6.33;;;23.80;92.60;;;;;;5036432;28;20457;-90
2022/06/12 05:54:33;;;;;;;7.50;6.80;;;23.80;92.70;;;;;;5032557;28;20446;-90
2022/06/12 05:57:00;;;;;;;9.03;7.03;;;24.10;92.10;;;;;;5030895;28;20591;-90
2022/06/12 05:59:27;;;;;;;8.20;7.40;;;24.30;91.20;;;;;;5017549;28;20481;-89
2022/06/12 06:01:55;;;;;;;7.73;6.90;;;24.50;90.60;;;;;;5029452;28;20450;-89
2022/06/12 06:04:23;;;;;;;7.17;6.27;;;24.90;90.20;;;;;;5028136;28;20449;-90
2022/06/12 06:06:52;;;;;;;8.20;7.50;;;25.00;88.90;;;;;;5022720;28;20435;-90
2022/06/12 06:09:19;;;;;;;10.30;6.90;;;25.20;88.30;;;;;;5018682;28;20494;-90
2022/06/12 06:11:47;;;;;;;6.70;6.10;;;25.30;86.40;;;;;;5018614;28;20440;-90
2022/06/12 06:14:14;;;;;;;7.67;6.97;;;25.60;85.20;;;;;;5017831;28;20833;-90
2022/06/12 06:16:42;;;;;;;8.20;7.50;;;26.00;84.40;;;;;;5017916;28;20878;-90
2022/06/12 06:19:10;;;;;;;6.20;5.70;;;26.40;81.60;;;;;;5015997;28;20461;-90
2022/06/12 06:21:39;;;;;;;7.50;6.90;;;26.70;80.20;;;;;;5017941;28;20450;-90
2022/06/12 06:24:07;;;;;;;8.07;6.30;;;27.00;78.30;;;;;;5018803;28;20454;-89
2022/06/12 06:26:34;;;;;;;6.70;6.20;;;27.20;77.50;;;;;;5017559;28;20978;-89
2022/06/12 06:29:01;;;;;;;7.70;6.63;;;27.10;76.10;;;;;;5015756;28;20450;-89
2022/06/12 06:31:28;;;;;;;7.13;6.50;;;27.80;75.90;;;;;;5015258;28;20442;-89
2022/06/12 06:33:55;;;;;;;7.60;6.40;;;28.20;72.90;;;;;;5014662;28;20446;-89
2022/06/12 06:36:24;;;;;;;10.50;7.20;;;28.20;71.80;;;;;;5014866;28;20481;-89
2022/06/12 06:38:52;;;;;;;6.40;5.90;;;28.40;71.80;;;;;;5014721;28;20453;-89
2022/06/12 06:41:19;;;;;;;7.30;6.17;;;28.40;71.40;;;;;;5017032;28;20470;-89
2022/06/12 06:46:30;;;;;;;9.70;6.23;;;28.50;70.00;;;;;;5016091;28;20437;-89
2022/06/12 06:48:57;;;;;;;7.23;6.03;;;29.10;68.40;;;;;;5014083;28;20521;-89
2022/06/12 06:51:25;;;;;;;7.43;6.80;;;29.70;66.80;;;;;;5014115;28;20457;-89
2022/06/12 06:53:52;;;;;;;5.87;5.37;;;29.70;65.40;;;;;;5015449;28;20448;-89
2022/06/12 06:56:19;;;;;;;6.80;6.10;;;29.90;64.10;;;;;;5014588;28;20446;-89
2022/06/12 06:58:47;;;;;;;7.00;5.40;;;30.40;62.90;;;;;;5014342;28;20841;-89
2022/06/12 07:01:14;;;;;;;6.37;5.97;;;31.00;61.70;;;;;;5022070;28;20469;-88
2022/06/12 07:03:40;;;;;;;8.23;6.20;;;31.40;60.40;;;;;;5038637;28;20434;-88
2022/06/12 07:06:07;;;;;;;5.90;5.30;;;31.50;59.40;;;;;;5033621;28;20954;-89
2022/06/12 07:08:35;;;;;;;6.13;5.53;;;31.70;59.00;;;;;;5013778;28;20450;-89
2022/06/12 07:11:02;;;;;;;6.63;6.13;;;32.20;58.20;;;;;;5018527;28;20485;-89
2022/06/12 07:13:29;;;;;;;5.73;5.20;;;32.70;57.20;;;;;;5023978;28;20453;-89
2022/06/12 07:15:55;;;;;;;6.77;5.97;;;33.00;56.40;;;;;;5022653;28;20457;-89
2022/06/12 07:18:23;;;;;;;5.73;5.30;;;33.10;55.90;;;;;;5014274;28;20449;-89
2022/06/12 07:20:52;;;;;;;7.10;5.07;;;33.40;54.70;;;;;;5016060;28;20467;-88
2022/06/12 07:23:20;;;;;;;6.33;5.80;;;32.50;54.00;;;;;;5025760;28;21010;-89
2022/06/12 07:25:51;;;;;;;7.87;6.30;;;32.10;55.80;;;;;;5037426;28;20441;-88
2022/06/12 07:28:19;;;;;;;5.73;5.10;;;32.40;55.20;;;;;;5028900;28;20815;-89
2022/06/12 07:30:46;;;;;;;5.97;5.57;;;33.00;54.80;;;;;;5016823;28;20481;-89
2022/06/12 07:33:13;;;;;;;5.60;5.17;;;33.50;53.50;;;;;;5028372;28;20422;-88
2022/06/12 07:35:41;;;;;;;5.20;4.80;;;33.80;52.40;;;;;;5035143;28;20441;-90
2022/06/12 07:38:09;;;;;;;5.83;5.30;;;34.30;51.90;;;;;;5014528;28;20451;-89
2022/06/12 07:40:38;;;;;;;5.47;5.07;;;34.60;51.10;;;;;;5013776;28;20470;-89
2022/06/12 07:43:08;;;;;;;6.23;4.63;;;34.00;50.70;;;;;;5015759;28;20453;-90
2022/06/12 07:45:35;;;;;;;7.63;4.93;;;34.10;50.90;;;;;;5013580;28;20446;-89
2022/06/12 07:48:02;;;;;;;6.23;5.07;;;34.70;50.60;;;;;;5014591;28;20442;-90
2022/06/12 07:50:29;;;;;;;4.80;4.40;;;35.20;49.40;;;;;;5013370;28;20497;-89
2022/06/12 07:52:58;;;;;;;7.37;4.93;;;35.60;49.10;;;;;;5014332;28;20449;-90
2022/06/12 07:55:25;;;;;;;5.27;4.63;;;36.10;48.20;;;;;;5015202;28;20477;-89
2022/06/12 07:57:53;;;;;;;5.40;4.90;;;35.90;47.30;;;;;;5018480;28;20454;-89
2022/06/12 08:00:21;;;;;;;4.97;4.57;;;36.10;47.60;;;;;;5035414;28;20450;-89
2022/06/12 08:02:48;;;;;;;5.90;5.20;;;36.60;46.00;;;;;;5029596;28;20435;-89
2022/06/12 08:05:16;;;;;;;4.60;4.17;;;36.50;45.60;;;;;;5018297;28;20438;-89
2022/06/12 08:07:43;;;;;;;4.90;4.50;;;36.90;45.30;;;;;;5019223;28;20457;-90
2022/06/12 08:10:11;;;;;;;4.27;3.87;;;37.30;44.60;;;;;;5029064;28;20476;-90
2022/06/12 08:12:41;;;;;;;4.67;4.27;;;37.40;44.30;;;;;;5035196;28;20450;-89
2022/06/12 08:15:11;;;;;;;5.40;4.03;;;37.80;43.80;;;;;;5028717;28;20449;-90
2022/06/12 08:17:39;;;;;;;5.37;4.87;;;37.20;44.00;;;;;;5037119;28;20556;-89
2022/06/12 08:20:25;;;;;;;4.90;4.30;;;36.20;45.10;;;;;;5034797;28;20474;-89
2022/06/12 08:22:58;;;;;;;5.20;4.70;;;36.60;45.00;;;;;;5038823;28;20438;-86
2022/06/12 08:25:26;;;;;;;4.83;4.13;;;37.10;43.90;;;;;;5045385;28;20433;-86
2022/06/12 08:27:52;;;;;;;4.20;3.80;;;37.00;44.30;;;;;;5029837;28;20438;-87
2022/06/12 08:30:19;;;;;;;5.43;3.90;;;37.80;43.80;;;;;;5023191;28;20478;-87
2022/06/12 08:32:52;;;;;;;5.83;4.47;;;38.90;42.60;;;;;;5021296;28;20813;-87
2022/06/12 08:35:26;;;;;;;4.60;4.20;;;39.70;40.60;;;;;;5021281;28;20442;-87
2022/06/12 08:37:53;;;;;;;4.63;3.97;;;40.30;39.90;;;;;;5020150;28;20445;-87
2022/06/12 08:40:28;;;;;;;6.30;3.90;;;40.10;39.50;;;;;;5021326;28;20454;-86
2022/06/12 08:43:09;;;;;;;5.07;4.57;;;40.20;40.50;;;;;;5020689;28;20445;-86
2022/06/12 08:45:42;;;;;;;7.70;4.23;;;40.80;39.30;;;;;;5019345;28;20828;-87
2022/06/12 08:48:19;;;;;;;8.60;4.17;;;40.40;38.50;;;;;;5019890;28;20445;-87
2022/06/12 08:50:51;;;;;;;7.17;3.50;;;40.90;38.50;;;;;;5018767;28;20504;-86
2022/06/12 08:53:25;;;;;;;3.90;3.60;;;41.70;37.20;;;;;;5034962;28;20453;-86
2022/06/12 08:55:57;;;;;;;4.40;3.37;;;41.80;36.90;;;;;;5040065;28;20428;-87
2022/06/12 08:58:29;;;;;;;3.87;3.47;;;42.60;36.40;;;;;;5035297;28;20786;-87
2022/06/12 09:00:55;;;;;;;4.20;3.60;;;42.80;35.20;;;;;;5018732;28;20477;-86
2022/06/12 09:03:28;;;;;;;4.37;3.40;;;42.30;35.60;;;;;;5019171;28;20442;-86
2022/06/12 09:06:01;;;;;;;3.50;3.20;;;42.70;35.20;;;;;;5018784;28;20450;-86
2022/06/12 09:08:30;;;;;;;3.63;3.30;;;42.60;34.00;;;;;;5023967;28;20455;-86
2022/06/12 09:11:09;;;;;;;4.40;3.50;;;43.10;33.50;;;;;;5023082;28;20477;-86
2022/06/12 09:13:44;;;;;;;3.87;3.47;;;43.10;33.50;;;;;;5022652;28;20451;-86
2022/06/12 09:16:18;;;;;;;4.07;3.40;;;43.20;34.10;;;;;;5024926;28;20448;-83
2022/06/12 09:18:55;;;;;;;5.40;2.70;;;42.80;33.90;;;;;;5027054;28;20967;-84
2022/06/12 09:21:29;;;;;;;2.80;2.60;;;42.70;35.00;;;;;;5025002;28;20974;-84
2022/06/12 09:24:07;;;;;;;3.60;3.30;;;44.00;32.90;;;;;;5023995;28;20499;-84
2022/06/12 09:26:46;;;;;;;3.70;3.40;;;42.90;32.90;;;;;;5025740;28;20437;-83
2022/06/12 09:29:24;;;;;;;3.67;3.37;;;42.00;33.70;;;;;;5028124;28;20433;-83
2022/06/12 09:32:00;;;;;;;3.50;3.20;;;42.70;33.40;;;;;;5033538;28;20493;-83
2022/06/12 09:34:36;;;;;;;4.43;3.60;;;42.80;32.90;;;;;;5039202;28;20444;-84
2022/06/12 09:40:28;;;;;;;3.50;3.20;;;41.70;33.80;;;;;;5013952;28;20503;-84
2022/06/12 09:43:00;;;;;;;3.77;3.47;;;40.70;34.00;;;;;;5025520;28;20438;-84
2022/06/12 09:45:33;;;;;;;3.23;2.93;;;40.40;34.60;;;;;;5023290;28;20446;-85
2022/06/12 09:48:14;;;;;;;2.90;2.70;;;41.40;33.10;;;;;;5024699;28;20881;-83
2022/06/12 09:50:52;;;;;;;3.63;3.10;;;42.30;32.30;;;;;;5022317;28;21726;-84
2022/06/12 09:53:39;;;;;;;4.33;3.47;;;41.50;32.70;;;;;;5023431;28;20824;-83
2022/06/12 09:56:11;;;;;;;4.03;3.63;;;40.90;33.30;;;;;;5025350;28;20446;-82
2022/06/12 09:58:44;;;;;;;4.03;3.37;;;41.10;33.50;;;;;;5025955;28;20438;-84
2022/06/12 10:01:17;;;;;;;4.30;3.20;;;41.00;33.50;;;;;;5025042;28;20465;-84
2022/06/12 10:03:48;;;;;;;3.67;3.37;;;41.50;33.90;;;;;;5025877;28;20450;-85
2022/06/12 10:06:24;;;;;;;3.10;2.80;;;41.40;34.10;;;;;;5024697;28;20481;-84
2022/06/12 10:08:58;;;;;;;3.47;2.60;;;40.60;33.60;;;;;;5026267;28;20997;-85
2022/06/12 10:11:29;;;;;;;3.20;2.90;;;41.30;33.20;;;;;;5029020;28;20499;-84
2022/06/12 10:14:00;;;;;;;3.30;2.73;;;42.30;32.40;;;;;;5025539;28;20445;-83
2022/06/12 10:16:34;;;;;;;3.37;2.77;;;43.60;31.80;;;;;;5022757;28;20441;-84
2022/06/12 10:19:04;;;;;;;5.53;3.10;;;43.80;31.00;;;;;;5026824;28;20450;-83
2022/06/12 10:21:35;;;;;;;3.00;2.70;;;44.60;30.60;;;;;;5025232;28;20452;-85
2022/06/12 10:24:03;;;;;;;3.37;3.07;;;44.90;29.50;;;;;;5024657;28;20445;-85
2022/06/12 10:26:32;;;;;;;2.90;2.60;;;45.20;29.20;;;;;;5027791;28;20469;-85
2022/06/12 10:29:06;;;;;;;4.20;2.90;;;44.90;29.30;;;;;;5026242;28;20444;-85
2022/06/12 10:31:35;;;;;;;3.20;2.90;;;45.40;29.40;;;;;;5024074;28;20475;-84
2022/06/12 10:34:15;;;;;;;2.97;2.67;;;45.50;29.20;;;;;;5022505;28;20441;-85
2022/06/12 10:36:44;;;;;;;3.40;3.10;;;45.70;29.10;;;;;;5025710;28;20532;-85
2022/06/12 10:39:15;;;;;;;4.63;2.90;;;46.30;29.00;;;;;;5024021;28;20442;-85
2022/06/12 10:41:49;;;;;;;6.13;3.10;;;45.90;28.80;;;;;;5024680;28;20825;-85
2022/06/12 10:44:37;;;;;;;4.40;3.37;;;45.10;28.80;;;;;;5025791;28;20449;-85
2022/06/12 10:47:17;;;;;;;3.30;2.60;;;45.50;28.10;;;;;;5038436;28;20437;-85
2022/06/12 10:49:44;;;;;;;2.63;2.43;;;44.00;29.00;;;;;;5047151;28;20436;-85
2022/06/12 10:52:18;;;;;;;3.10;2.80;;;41.90;30.50;;;;;;5046071;28;20489;-85
2022/06/12 10:54:45;;;;;;;3.83;2.80;;;42.10;31.00;;;;;;5045013;28;20450;-85
2022/06/12 10:57:35;;;;;;;3.30;3.00;;;42.90;30.10;;;;;;5031007;28;20444;-85
2022/06/12 11:00:05;;;;;;;3.60;3.30;;;41.40;30.80;;;;;;5040830;28;20482;-86
2022/06/12 11:02:57;;;;;;;3.50;3.20;;;40.50;32.10;;;;;;5027880;28;20484;-86
2022/06/12 11:05:50;;;;;;;3.87;3.57;;;40.70;32.50;;;;;;5019130;28;20454;-85
2022/06/12 11:08:29;;;;;;;2.80;2.60;;;40.00;33.20;;;;;;5017264;28;20446;-88
2022/06/12 11:11:03;;;;;;;4.37;3.80;;;39.50;34.00;;;;;;5015894;28;20485;-85
2022/06/12 11:13:47;;;;;;;3.63;3.33;;;39.20;34.20;;;;;;5014328;28;20450;-84
2022/06/12 11:16:25;;;;;;;4.27;3.30;;;40.60;33.90;;;;;;5014674;28;20453;-85
2022/06/12 11:19:08;;;;;;;3.73;3.27;;;41.90;32.10;;;;;;5013443;28;20865;-84
2022/06/12 11:21:45;;;;;;;4.50;3.63;;;43.00;30.30;;;;;;5012427;28;20453;-85
2022/06/12 11:24:17;;;;;;;3.67;3.37;;;42.20;31.30;;;;;;5012834;28;20816;-84
2022/06/12 11:27:05;;;;;;;3.83;3.20;;;42.90;31.30;;;;;;5018418;28;20438;-85
2022/06/12 11:29:50;;;;;;;3.73;2.80;;;43.40;30.00;;;;;;5020131;28;20558;-85
2022/06/12 11:32:28;;;;;;;4.20;3.23;;;42.90;30.50;;;;;;5032311;28;20480;-84
2022/06/12 11:35:17;;;;;;;3.70;3.30;;;43.90;30.70;;;;;;5042173;28;20496;-85
2022/06/12 11:38:06;;;;;;;3.87;3.50;;;45.00;30.00;;;;;;5018108;28;20452;-87
2022/06/12 11:40:40;;;;;;;3.40;3.20;;;44.40;29.10;;;;;;5030903;28;20472;-87
2022/06/12 11:43:16;;;;;;;3.40;3.10;;;43.40;29.90;;;;;;5018559;28;20442;-87
2022/06/12 11:45:59;;;;;;;3.27;3.07;;;43.00;30.10;;;;;;5024856;28;20533;-86
2022/06/12 11:48:44;;;;;;;3.73;3.30;;;43.40;29.80;;;;;;5016045;28;20441;-86
2022/06/12 11:51:19;;;;;;;3.37;3.07;;;41.70;30.70;;;;;;5021467;28;20849;-87
2022/06/12 11:54:02;;;;;;;4.40;3.20;;;42.20;30.40;;;;;;5045786;28;20420;-87
2022/06/12 11:56:39;;;;;;;3.90;3.10;;;42.30;30.60;;;;;;5037597;28;20965;-87
2022/06/12 11:59:17;;;;;;;7.43;4.07;;;43.90;29.40;;;;;;5024386;28;20440;-87
2022/06/12 12:01:49;;;;;;;3.27;2.87;;;43.70;29.40;;;;;;5021317;28;20465;-86
2022/06/12 12:04:53;;;;;;;3.50;3.00;;;43.30;29.60;;;;;;5027562;28;20430;-86
2022/06/12 12:07:40;;;;;;;3.57;3.00;;;42.50;30.10;;;;;;5013280;28;20446;-86
2022/06/12 12:10:26;;;;;;;3.67;3.40;;;41.60;30.90;;;;;;5023954;28;20465;-88
2022/06/12 12:13:02;;;;;;;3.20;2.73;;;42.10;31.60;;;;;;5031703;28;20471;-88
2022/06/12 12:15:35;;;;;;;3.33;3.03;;;43.40;30.50;;;;;;5033676;28;20445;-88
2022/06/12 12:18:08;;;;;;;5.10;2.50;;;44.60;29.60;;;;;;5032944;28;20453;-87
2022/06/12 12:20:39;;;;;;;5.10;3.27;;;45.70;29.10;;;;;;5034625;28;20476;-90
2022/06/12 12:23:11;;;;;;;3.50;3.13;;;46.40;28.90;;;;;;5035422;28;20453;-87
2022/06/12 12:25:42;;;;;;;3.33;3.00;;;46.60;28.20;;;;;;5033667;28;20451;-87
2022/06/12 12:28:22;;;;;;;5.47;3.77;;;45.50;28.30;;;;;;5033724;28;20452;-88
2022/06/12 12:30:52;;;;;;;3.33;3.03;;;42.70;30.00;;;;;;5039721;28;20476;-87
2022/06/12 12:33:20;;;;;;;2.93;2.73;;;41.10;31.80;;;;;;5034510;28;20445;-90
2022/06/12 12:41:21;;;;;;;3.07;2.87;;;44.30;29.50;;;;;;5033570;28;20516;-87
2022/06/12 12:43:51;;;;;;;3.53;2.60;;;43.60;29.80;;;;;;5037469;28;20449;-88
2022/06/12 12:46:18;;;;;;;3.17;2.70;;;43.60;29.70;;;;;;5056251;28;20452;-87
2022/06/12 12:48:48;;;;;;;3.90;3.33;;;43.70;29.50;;;;;;5054750;28;20471;-87
2022/06/12 12:51:33;;;;;;;5.80;3.40;;;42.70;30.20;;;;;;5042662;28;20492;-86
2022/06/12 12:54:10;;;;;;;3.50;3.20;;;41.40;30.50;;;;;;5036148;28;20937;-85
2022/06/12 12:56:41;;;;;;;5.57;2.80;;;40.30;31.80;;;;;;5035835;28;20447;-85
2022/06/12 12:59:11;;;;;;;4.23;2.80;;;40.50;32.70;;;;;;5035420;28;20444;-86
2022/06/12 13:01:41;;;;;;;3.13;2.80;;;41.10;31.90;;;;;;5035545;28;20793;-85
2022/06/12 13:04:19;;;;;;;4.73;2.77;;;41.10;32.00;;;;;;5027224;28;20444;-87
2022/06/12 13:07:10;;;;;;;2.50;2.30;;;41.40;31.70;;;;;;5019667;28;20445;-85
2022/06/12 13:10:26;;;;;;;3.13;2.83;;;40.80;31.70;;;;;;5015472;28;20461;-86
2022/06/12 13:13:20;;;;;;;3.17;2.87;;;39.20;33.20;;;;;;5018889;28;21168;-87
2022/06/12 13:15:54;;;;;;;2.87;2.67;;;39.00;34.40;;;;;;5018313;28;20480;-88
2022/06/12 13:18:38;;;;;;;4.43;3.50;;;40.50;33.20;;;;;;5033583;28;20477;-89
2022/06/12 13:21:14;;;;;;;4.63;2.87;;;40.90;32.30;;;;;;5037093;28;20457;-86
2022/06/12 13:23:54;;;;;;;3.90;2.97;;;41.20;32.10;;;;;;5029925;28;20441;-83
2022/06/12 13:26:22;;;;;;;5.87;2.97;;;42.70;30.90;;;;;;5035578;28;20525;-85
2022/06/12 13:29:00;;;;;;;3.47;3.17;;;42.10;31.10;;;;;;5027176;28;20443;-83
2022/06/12 13:31:33;;;;;;;3.03;2.60;;;42.50;30.80;;;;;;5045118;28;20469;-84
2022/06/12 13:34:01;;;;;;;3.70;3.13;;;42.90;30.10;;;;;;5039241;28;20442;-84